Terminal Aerodrome Forecast
Issued by NWS St Louis, MO

Home | Current Version | Previous Version | Text Only | Print | Product List | Glossary On
Versions: 1 2 3 4 5 6 7 8 9 10 11 12 13 14 15 16 17 18 19 20 21 22 23 24 25 26 27 28 29 30 31
786
FTUS43 KLSX 260328 AAA
TAFSTL
TAF AMD
KSTL 260328Z 2603/2706 17011KT P6SM SCT250
     FM261000 17007KT P6SM VCSH BKN100
     FM261400 19009KT P6SM OVC025
     FM261900 19012KT P6SM VCTS OVC030CB
     FM270000 27010KT P6SM OVC030=

USA.gov is the U.S. government's official web portal to all federal, state and local government web resources and services.